Time;durP1;ratioP1;P1;durP2;ratioP2;P2;SDS_P1;SDS_P2;PMS_P1;PMS_P2;Temp;Humidity;BMP_temperature;BMP_pressure;BME280_temperature;BME280_humidity;BME280_pressure;Samples;Min_cycle;Max_cycle;Signal;HPM_P1;HPM_P2
2022/03/03 00:00:31;;;;;;;21.30;15.73;;;1.00;98.30;;;;;;2614601;51;20515;-75
2022/03/03 00:02:58;;;;;;;27.37;16.87;;;1.00;97.80;;;;;;2614273;39;20591;-75
2022/03/03 00:05:24;;;;;;;24.90;15.03;;;0.90;98.00;;;;;;2614616;54;20427;-75
2022/03/03 00:07:51;;;;;;;23.70;17.00;;;0.90;98.20;;;;;;2614635;47;20446;-76
2022/03/03 00:10:17;;;;;;;25.37;17.10;;;0.90;97.90;;;;;;2616481;54;20398;-75
2022/03/03 00:12:42;;;;;;;25.70;17.67;;;0.90;97.80;;;;;;2615641;39;20787;-76
2022/03/03 00:15:10;;;;;;;26.20;17.00;;;0.80;99.20;;;;;;2615155;54;20423;-75
2022/03/03 00:17:36;;;;;;;34.30;17.10;;;0.90;99.90;;;;;;2615327;54;20458;-74
2022/03/03 00:20:02;;;;;;;20.20;14.83;;;0.90;99.90;;;;;;2616333;47;20510;-74
2022/03/03 00:22:32;;;;;;;22.00;16.10;;;0.90;99.50;;;;;;2615874;47;20197;-74
2022/03/03 00:24:58;;;;;;;31.47;17.47;;;0.70;99.90;;;;;;2615966;54;20399;-75
2022/03/03 00:27:24;;;;;;;27.90;16.23;;;0.90;99.90;;;;;;2615949;39;20814;-75
2022/03/03 00:29:49;;;;;;;23.00;16.40;;;0.90;99.90;;;;;;2616348;54;20407;-76
2022/03/03 00:32:16;;;;;;;22.60;14.67;;;0.70;99.90;;;;;;2615898;54;20415;-75
2022/03/03 00:34:42;;;;;;;20.80;15.20;;;0.80;99.90;;;;;;2616917;54;20411;-77
2022/03/03 00:37:08;;;;;;;19.77;14.60;;;0.70;99.90;;;;;;2616640;39;20957;-74
2022/03/03 00:39:34;;;;;;;32.20;21.80;;;0.60;99.90;;;;;;2616348;54;20180;-76
2022/03/03 00:42:03;;;;;;;20.70;15.57;;;0.40;99.90;;;;;;2616417;47;20450;-76
2022/03/03 00:44:30;;;;;;;24.83;16.23;;;0.50;99.90;;;;;;2617404;54;20438;-73
2022/03/03 00:46:57;;;;;;;24.20;14.93;;;0.60;99.90;;;;;;2614608;47;20416;-75
2022/03/03 00:49:23;;;;;;;23.37;17.03;;;0.50;99.90;;;;;;2614840;54;20453;-76
2022/03/03 00:51:49;;;;;;;28.37;17.37;;;0.50;99.90;;;;;;2617529;54;20426;-74
2022/03/03 00:54:15;;;;;;;25.03;16.87;;;0.60;99.90;;;;;;2615372;54;20426;-75
2022/03/03 00:56:41;;;;;;;32.43;17.73;;;0.40;99.90;;;;;;2616203;54;20638;-74
2022/03/03 00:59:10;;;;;;;25.60;16.30;;;0.50;99.90;;;;;;2616529;54;20181;-74
2022/03/03 01:02:00;;;;;;;29.53;16.70;;;0.30;99.90;;;;;;2615978;51;20398;-74
2022/03/03 01:04:26;;;;;;;29.03;17.83;;;0.20;99.90;;;;;;2613479;47;20550;-77
2022/03/03 01:06:52;;;;;;;26.17;18.03;;;0.40;99.90;;;;;;2615914;51;20414;-75
2022/03/03 01:09:17;;;;;;;33.33;17.93;;;0.30;99.90;;;;;;2615458;39;20568;-75
2022/03/03 01:11:45;;;;;;;23.47;17.70;;;0.30;99.90;;;;;;2615341;39;20930;-75
2022/03/03 01:14:11;;;;;;;30.83;17.83;;;0.20;99.90;;;;;;2616128;47;20418;-75
2022/03/03 01:16:37;;;;;;;27.20;18.23;;;0.10;99.90;;;;;;2615918;47;20483;-75
2022/03/03 01:19:05;;;;;;;26.10;17.67;;;-0.10;99.90;;;;;;2615421;54;20479;-77
2022/03/03 01:21:31;;;;;;;28.67;17.33;;;-0.10;99.90;;;;;;2616497;54;20487;-76
2022/03/03 01:23:58;;;;;;;29.07;16.63;;;-0.10;99.90;;;;;;2616359;46;20438;-75
2022/03/03 01:26:24;;;;;;;26.00;17.27;;;0.00;99.90;;;;;;2617722;39;20896;-75
2022/03/03 01:28:50;;;;;;;20.87;15.23;;;0.00;99.90;;;;;;2615622;47;20426;-75
2022/03/03 01:31:17;;;;;;;25.20;16.53;;;0.10;99.90;;;;;;2617067;54;20155;-74
2022/03/03 01:33:42;;;;;;;27.00;17.23;;;0.10;99.90;;;;;;2616505;54;20164;-75
2022/03/03 01:36:08;;;;;;;25.13;15.87;;;0.10;99.90;;;;;;2615210;54;20407;-74
2022/03/03 01:38:34;;;;;;;25.57;18.90;;;0.10;99.90;;;;;;2616402;47;20466;-75
2022/03/03 01:41:00;;;;;;;26.00;17.97;;;0.10;99.90;;;;;;2616758;39;20562;-75
2022/03/03 01:43:26;;;;;;;25.03;18.20;;;0.00;99.90;;;;;;2614806;54;20440;-75
2022/03/03 01:45:52;;;;;;;26.30;16.97;;;0.00;99.90;;;;;;2614926;47;20543;-74
2022/03/03 01:48:17;;;;;;;26.37;17.30;;;0.00;99.90;;;;;;2615897;47;20177;-75
2022/03/03 01:50:45;;;;;;;31.50;19.50;;;0.00;99.90;;;;;;2614637;54;20139;-75
2022/03/03 01:53:11;;;;;;;29.47;17.60;;;-0.20;99.90;;;;;;2614430;46;20314;-74
2022/03/03 01:55:38;;;;;;;24.70;17.83;;;-0.20;99.90;;;;;;2615904;54;21168;-75
2022/03/03 01:58:04;;;;;;;25.27;17.13;;;-0.20;99.90;;;;;;2615913;39;20832;-75
2022/03/03 02:00:30;;;;;;;29.53;18.70;;;-0.10;99.90;;;;;;2617144;47;20424;-78
2022/03/03 02:02:56;;;;;;;30.93;17.83;;;-0.10;99.90;;;;;;2614375;54;20375;-79
2022/03/03 02:05:22;;;;;;;29.43;18.37;;;-0.10;99.90;;;;;;2616661;47;20402;-77
2022/03/03 02:07:48;;;;;;;31.37;18.73;;;-0.10;99.90;;;;;;2617103;54;20408;-76
2022/03/03 02:10:14;;;;;;;28.60;18.23;;;-0.30;99.90;;;;;;2616691;47;20383;-76
2022/03/03 02:12:40;;;;;;;25.00;17.97;;;-0.20;99.90;;;;;;2613596;47;20502;-76
2022/03/03 02:15:06;;;;;;;32.47;19.70;;;-0.30;99.90;;;;;;2615996;54;20234;-76
2022/03/03 02:17:36;;;;;;;32.83;18.33;;;-0.20;99.90;;;;;;2614037;47;21506;-76
2022/03/03 02:20:07;;;;;;;28.67;20.80;;;-0.10;99.90;;;;;;2617185;54;20411;-78
2022/03/03 02:22:36;;;;;;;29.90;19.20;;;-0.20;99.90;;;;;;2615486;54;20404;-76
2022/03/03 02:25:02;;;;;;;32.77;21.10;;;-0.30;99.90;;;;;;2616143;47;20432;-77
2022/03/03 02:27:28;;;;;;;33.20;20.40;;;-0.20;99.90;;;;;;2616239;47;20402;-76
2022/03/03 02:30:18;;;;;;;27.83;18.80;;;-0.20;99.90;;;;;;2616893;54;20450;-76
2022/03/03 02:32:45;;;;;;;30.80;19.07;;;-0.10;99.90;;;;;;2615508;39;20752;-76
2022/03/03 02:35:11;;;;;;;30.67;18.80;;;-0.10;99.90;;;;;;2616170;47;20414;-77
2022/03/03 02:37:39;;;;;;;28.27;18.30;;;0.00;99.90;;;;;;2615181;54;20383;-76
2022/03/03 02:40:09;;;;;;;28.70;18.27;;;-0.10;99.90;;;;;;2614951;47;20434;-77
2022/03/03 02:42:36;;;;;;;34.60;18.27;;;-0.20;99.90;;;;;;2614518;47;20387;-76
2022/03/03 02:45:05;;;;;;;28.93;20.30;;;-0.30;99.90;;;;;;2616222;47;20394;-77
2022/03/03 02:47:31;;;;;;;24.50;16.93;;;-0.20;99.90;;;;;;2615692;54;20411;-78
2022/03/03 02:49:58;;;;;;;30.10;18.60;;;-0.30;99.90;;;;;;2615924;54;20399;-77
2022/03/03 02:52:24;;;;;;;31.37;18.20;;;-0.10;99.90;;;;;;2615831;54;20509;-76
2022/03/03 02:54:50;;;;;;;30.63;19.17;;;-0.10;99.90;;;;;;2616368;54;20524;-75
2022/03/03 03:00:03;;;;;;;38.43;19.53;;;0.00;99.90;;;;;;2616683;54;20402;-76
2022/03/03 03:02:30;;;;;;;32.90;19.00;;;0.00;99.90;;;;;;2619382;39;20925;-77
2022/03/03 03:04:55;;;;;;;34.23;18.53;;;0.20;99.90;;;;;;2618101;54;20517;-78
2022/03/03 03:07:22;;;;;;;28.73;16.30;;;0.30;99.90;;;;;;2618114;54;20419;-78
2022/03/03 03:09:48;;;;;;;32.27;18.87;;;0.30;99.90;;;;;;2619180;54;20150;-78
2022/03/03 03:12:14;;;;;;;27.30;17.20;;;0.30;99.90;;;;;;2618412;39;20846;-77
2022/03/03 03:14:40;;;;;;;27.13;17.13;;;0.20;99.90;;;;;;2616996;47;20448;-77
2022/03/03 03:17:06;;;;;;;24.30;17.00;;;0.20;99.90;;;;;;2616586;47;20179;-77
2022/03/03 03:19:32;;;;;;;29.40;17.23;;;0.10;99.90;;;;;;2617102;47;20679;-77
2022/03/03 03:21:59;;;;;;;28.77;17.60;;;0.00;99.90;;;;;;2618413;54;20411;-77
2022/03/03 03:24:25;;;;;;;25.47;16.17;;;0.10;99.90;;;;;;2616860;54;20659;-76
2022/03/03 03:26:51;;;;;;;26.00;18.13;;;0.10;99.90;;;;;;2617145;47;20387;-77
2022/03/03 03:29:17;;;;;;;29.33;17.53;;;0.20;99.90;;;;;;2616194;54;20363;-77
2022/03/03 03:31:44;;;;;;;26.67;17.47;;;0.10;99.90;;;;;;2616132;47;20598;-77
2022/03/03 03:34:09;;;;;;;27.93;18.80;;;-0.50;99.90;;;;;;2616198;39;20538;-77
2022/03/03 03:36:37;;;;;;;24.37;14.83;;;;;;;;;;2615375;54;20446;-76
2022/03/03 03:39:03;;;;;;;30.00;14.57;;;;;;;;;;2613305;47;20196;-77
2022/03/03 03:41:30;;;;;;;25.80;16.27;;;-0.10;99.90;;;;;;2615683;54;20382;-78
2022/03/03 03:43:56;;;;;;;29.83;18.03;;;0.00;99.90;;;;;;2615396;47;20415;-77
2022/03/03 03:46:22;;;;;;;25.60;16.20;;;-0.10;99.90;;;;;;2615209;54;20433;-76
2022/03/03 03:48:48;;;;;;;25.33;16.70;;;-0.20;99.90;;;;;;2615691;54;20375;-78
2022/03/03 03:51:15;;;;;;;31.30;18.57;;;-0.30;99.90;;;;;;2616775;39;20560;-76
2022/03/03 03:53:41;;;;;;;28.80;17.67;;;-0.20;99.90;;;;;;2616034;47;20691;-76
2022/03/03 03:56:07;;;;;;;27.37;17.17;;;-0.20;99.90;;;;;;2617116;54;20403;-75
2022/03/03 03:58:33;;;;;;;34.93;17.40;;;-0.20;99.90;;;;;;2614701;47;20182;-77
2022/03/03 04:00:59;;;;;;;27.80;17.00;;;-0.30;99.90;;;;;;2616001;39;20794;-76
2022/03/03 04:03:25;;;;;;;27.10;17.03;;;-0.40;99.90;;;;;;2614633;54;20409;-77
2022/03/03 04:05:52;;;;;;;22.90;16.63;;;-0.30;99.90;;;;;;2615718;54;20155;-76
2022/03/03 04:08:18;;;;;;;27.17;16.80;;;-0.30;99.90;;;;;;2615887;54;20379;-76
2022/03/03 04:11:10;;;;;;;25.83;15.97;;;-0.30;99.90;;;;;;2619127;46;20402;-76
2022/03/03 04:13:36;;;;;;;24.20;15.83;;;-0.40;99.90;;;;;;2615475;47;20426;-77
2022/03/03 04:16:01;;;;;;;26.37;16.40;;;-0.50;99.90;;;;;;2615805;54;20490;-75
2022/03/03 04:18:27;;;;;;;23.60;16.17;;;-0.50;99.90;;;;;;2615815;54;20749;-76
2022/03/03 04:20:53;;;;;;;29.43;16.23;;;-0.60;99.90;;;;;;2616360;54;20565;-75
2022/03/03 04:23:19;;;;;;;26.87;16.80;;;-0.50;99.90;;;;;;2615716;54;20135;-77
2022/03/03 04:25:45;;;;;;;27.80;15.50;;;-0.50;99.90;;;;;;2615919;47;20400;-77
2022/03/03 04:28:11;;;;;;;28.80;16.13;;;-0.50;99.90;;;;;;2615060;54;20379;-75
2022/03/03 04:30:37;;;;;;;30.03;16.70;;;-0.40;99.90;;;;;;2617082;47;20434;-76
2022/03/03 04:33:04;;;;;;;26.17;15.50;;;-0.60;99.90;;;;;;2616922;47;20514;-77
2022/03/03 04:35:31;;;;;;;26.77;16.90;;;-0.60;99.90;;;;;;2616928;47;20430;-77
2022/03/03 04:37:59;;;;;;;25.60;15.10;;;-0.60;99.90;;;;;;2615941;54;20391;-77
2022/03/03 04:40:26;;;;;;;21.60;17.00;;;-0.50;99.90;;;;;;2616266;47;20414;-76
2022/03/03 04:42:51;;;;;;;28.03;16.20;;;-0.50;99.90;;;;;;2616593;54;20620;-76
2022/03/03 04:45:18;;;;;;;24.80;16.60;;;-0.70;99.90;;;;;;2617135;47;20403;-76
2022/03/03 04:47:44;;;;;;;28.03;16.33;;;-0.60;99.90;;;;;;2615722;47;20966;-77
2022/03/03 04:50:10;;;;;;;24.83;15.20;;;-0.70;99.90;;;;;;2616903;54;20385;-77
2022/03/03 04:52:39;;;;;;;24.03;15.87;;;;;;;;;;2616750;47;20423;-76
2022/03/03 04:55:06;;;;;;;22.47;15.40;;;-0.80;99.90;;;;;;2616669;47;20426;-77
2022/03/03 04:57:32;;;;;;;26.83;17.60;;;-0.90;99.90;;;;;;2615161;47;20427;-78
2022/03/03 04:59:58;;;;;;;21.63;14.73;;;-0.90;99.90;;;;;;2617189;39;20745;-76
2022/03/03 05:02:25;;;;;;;28.70;16.17;;;-1.00;99.90;;;;;;2616458;54;20191;-77
2022/03/03 05:04:51;;;;;;;26.07;16.50;;;-0.90;99.90;;;;;;2616702;47;20410;-77
2022/03/03 05:07:19;;;;;;;29.57;16.00;;;-1.00;99.90;;;;;;2616605;39;20814;-76
2022/03/03 05:09:46;;;;;;;24.00;16.50;;;-1.00;99.90;;;;;;2617772;39;20589;-76
2022/03/03 05:12:13;;;;;;;26.67;15.07;;;-1.10;99.90;;;;;;2617322;46;20415;-76
2022/03/03 05:14:39;;;;;;;35.90;16.50;;;-1.10;99.90;;;;;;2617454;54;20410;-77
2022/03/03 05:17:05;;;;;;;25.07;15.93;;;-1.10;99.90;;;;;;2616529;47;20407;-79
2022/03/03 05:19:33;;;;;;;30.33;16.97;;;-1.10;99.90;;;;;;2617308;47;20441;-76
2022/03/03 05:21:59;;;;;;;22.80;16.20;;;-1.10;99.90;;;;;;2616899;46;20411;-76
2022/03/03 05:24:26;;;;;;;25.27;14.87;;;-1.10;99.90;;;;;;2617349;54;20410;-77
2022/03/03 05:26:52;;;;;;;27.37;18.70;;;-1.30;99.90;;;;;;2616525;39;20574;-77
2022/03/03 05:29:20;;;;;;;27.83;17.30;;;-1.20;99.90;;;;;;2617243;47;20961;-77
2022/03/03 05:31:46;;;;;;;26.63;16.70;;;-1.10;99.90;;;;;;2616640;47;20419;-77
2022/03/03 05:34:11;;;;;;;30.80;18.03;;;-1.20;99.90;;;;;;2616945;47;20430;-77
2022/03/03 05:36:40;;;;;;;24.50;16.03;;;-1.20;99.90;;;;;;2616592;47;20571;-76
2022/03/03 05:39:06;;;;;;;27.17;16.30;;;-1.10;99.90;;;;;;2616917;46;20829;-76
2022/03/03 05:41:32;;;;;;;27.77;18.20;;;-1.00;99.90;;;;;;2617546;54;20402;-76
2022/03/03 05:43:59;;;;;;;26.63;17.30;;;-1.10;99.90;;;;;;2617378;31;20864;-78
2022/03/03 05:46:28;;;;;;;31.70;18.77;;;-1.20;99.90;;;;;;2616373;47;20411;-76
2022/03/03 05:48:55;;;;;;;29.40;16.67;;;-1.30;99.90;;;;;;2616526;47;20502;-77
2022/03/03 05:51:23;;;;;;;28.40;17.03;;;-1.30;99.90;;;;;;2616156;47;20459;-76
2022/03/03 05:53:49;;;;;;;26.30;16.83;;;-1.30;99.90;;;;;;2616783;47;21117;-75
2022/03/03 05:56:19;;;;;;;32.67;18.67;;;-1.30;99.90;;;;;;2617712;39;20778;-76
2022/03/03 05:58:47;;;;;;;27.73;17.83;;;-1.30;99.90;;;;;;2616689;47;20151;-76
2022/03/03 06:01:15;;;;;;;27.93;16.93;;;-1.30;99.90;;;;;;2616410;54;20945;-76
2022/03/03 06:03:41;;;;;;;33.90;17.50;;;-1.30;99.90;;;;;;2617263;47;20787;-76
2022/03/03 06:06:18;;;;;;;26.77;17.10;;;-1.20;99.90;;;;;;2616836;54;20367;-76
2022/03/03 06:08:52;;;;;;;25.40;17.87;;;-1.30;99.90;;;;;;2616482;54;20438;-76
2022/03/03 06:11:56;;;;;;;27.13;17.07;;;-1.20;99.90;;;;;;2614764;47;20436;-76
2022/03/03 06:14:30;;;;;;;30.57;19.63;;;-1.20;99.90;;;;;;2614502;47;20412;-77
2022/03/03 06:16:57;;;;;;;28.50;17.27;;;-1.30;99.90;;;;;;2614671;47;20403;-76
2022/03/03 06:19:51;;;;;;;27.80;18.23;;;-1.30;99.90;;;;;;2615921;47;20426;-77
2022/03/03 06:22:19;;;;;;;31.33;17.83;;;-1.20;99.90;;;;;;2614016;47;20383;-76
2022/03/03 06:24:47;;;;;;;29.77;18.90;;;-1.10;99.90;;;;;;2615380;47;20534;-76
2022/03/03 06:27:16;;;;;;;30.43;19.30;;;-1.10;99.90;;;;;;2615811;51;20494;-77
2022/03/03 06:29:42;;;;;;;31.33;18.20;;;-1.00;99.90;;;;;;2615384;54;20427;-76
2022/03/03 06:32:09;;;;;;;27.97;18.50;;;-1.00;99.90;;;;;;2614748;54;20446;-76
2022/03/03 06:35:03;;;;;;;27.80;20.07;;;-1.00;99.90;;;;;;2616517;47;20418;-77
2022/03/03 06:37:30;;;;;;;37.73;17.17;;;-1.00;99.90;;;;;;2615116;47;20998;-77
2022/03/03 06:39:58;;;;;;;38.20;20.60;;;-1.00;99.90;;;;;;2615324;47;20487;-76
2022/03/03 06:42:23;;;;;;;27.97;19.30;;;-1.00;99.90;;;;;;2615873;54;20394;-76
2022/03/03 06:44:53;;;;;;;27.83;16.07;;;;;;;;;;2616278;54;20478;-76
2022/03/03 06:47:21;;;;;;;34.33;20.87;;;-0.60;99.90;;;;;;2615533;47;20419;-76
2022/03/03 06:49:49;;;;;;;29.93;19.93;;;-0.60;99.90;;;;;;2615655;47;20463;-76
2022/03/03 06:52:22;;;;;;;29.30;20.27;;;-0.60;99.90;;;;;;2614312;47;20420;-77
2022/03/03 06:54:52;;;;;;;34.20;19.30;;;-0.60;99.90;;;;;;2615982;54;20479;-77
2022/03/03 06:57:22;;;;;;;32.33;18.60;;;-0.40;99.90;;;;;;2615869;47;20485;-77
2022/03/03 06:59:50;;;;;;;33.43;19.37;;;0.30;99.90;;;;;;2615849;47;20450;-77
2022/03/03 07:02:17;;;;;;;35.77;19.50;;;-0.10;99.90;;;;;;2615417;54;20410;-77
2022/03/03 07:04:47;;;;;;;29.83;20.03;;;-0.20;99.90;;;;;;2651902;36;20475;-77
2022/03/03 07:07:14;;;;;;;32.07;20.17;;;-0.30;99.90;;;;;;2615131;54;20450;-77
2022/03/03 07:09:43;;;;;;;26.27;19.47;;;0.00;99.90;;;;;;2615767;47;20383;-76
2022/03/03 07:12:12;;;;;;;29.60;19.30;;;0.10;99.90;;;;;;2615630;47;20398;-76
2022/03/03 07:14:38;;;;;;;48.20;24.07;;;0.10;99.90;;;;;;2616572;46;20406;-74
2022/03/03 07:17:22;;;;;;;33.67;20.37;;;0.20;99.90;;;;;;2617705;54;20424;-75
2022/03/03 07:19:54;;;;;;;25.30;19.50;;;;;;;;;;2616291;54;20415;-76
2022/03/03 07:22:20;;;;;;;32.30;21.63;;;;;;;;;;2616872;47;20423;-76
2022/03/03 07:25:10;;;;;;;31.53;21.83;;;2.50;99.90;;;;;;2616513;47;20403;-76
2022/03/03 07:27:45;;;;;;;30.47;22.03;;;2.70;99.90;;;;;;2616381;54;20444;-76
2022/03/03 07:30:15;;;;;;;27.43;19.90;;;2.80;90.60;;;;;;2617094;54;20411;-76
2022/03/03 07:33:07;;;;;;;37.47;22.63;;;3.10;89.50;;;;;;2617404;46;20434;-75
2022/03/03 07:35:35;;;;;;;37.13;20.83;;;3.50;78.40;;;;;;2617422;47;20444;-77
2022/03/03 07:38:09;;;;;;;29.43;21.23;;;4.00;56.20;;;;;;2616310;47;20418;-76
2022/03/03 07:40:41;;;;;;;31.40;20.20;;;4.40;44.70;;;;;;2615451;39;20806;-77
2022/03/03 07:43:08;;;;;;;28.53;19.93;;;4.70;38.40;;;;;;2615262;47;20427;-76
2022/03/03 07:45:34;;;;;;;28.33;21.20;;;4.90;32.70;;;;;;2616021;47;20426;-76
2022/03/03 07:48:26;;;;;;;23.37;19.37;;;5.10;28.80;;;;;;2615844;54;20994;-76
2022/03/03 07:50:53;;;;;;;30.73;20.90;;;5.50;25.90;;;;;;2614181;54;20697;-77
2022/03/03 07:53:19;;;;;;;41.03;21.37;;;5.80;22.70;;;;;;2614716;51;20465;-76
2022/03/03 07:55:51;;;;;;;29.23;17.97;;;6.00;29.10;;;;;;2615444;39;21410;-76
2022/03/03 07:58:19;;;;;;;30.90;19.07;;;;;;;;;;2614997;47;20987;-76
2022/03/03 08:01:17;;;;;;;29.50;20.73;;;6.40;17.30;;;;;;2614142;39;20541;-77
2022/03/03 08:03:47;;;;;;;33.23;21.10;;;6.40;17.50;;;;;;2614040;47;20979;-75
2022/03/03 08:06:15;;;;;;;31.87;20.00;;;6.50;16.50;;;;;;2614555;47;20430;-76
2022/03/03 08:08:41;;;;;;;26.63;21.27;;;6.50;15.40;;;;;;2614972;47;20430;-76
2022/03/03 08:11:09;;;;;;;26.87;19.50;;;6.70;15.40;;;;;;2614214;47;20398;-77
2022/03/03 08:13:36;;;;;;;29.00;20.30;;;7.00;13.60;;;;;;2614490;54;21072;-76
2022/03/03 08:16:04;;;;;;;28.10;20.80;;;7.10;11.90;;;;;;2615227;39;20786;-77
2022/03/03 08:18:32;;;;;;;25.47;20.67;;;7.10;12.20;;;;;;2614218;47;20443;-76
2022/03/03 08:21:02;;;;;;;27.60;21.40;;;7.30;11.60;;;;;;2614850;47;20959;-76
2022/03/03 08:23:30;;;;;;;32.03;23.13;;;7.50;9.30;;;;;;2615283;54;20547;-76
2022/03/03 08:25:58;;;;;;;25.77;20.50;;;7.40;10.80;;;;;;2615120;54;20994;-76
2022/03/03 08:28:24;;;;;;;29.60;20.43;;;7.70;8.10;;;;;;2614331;54;20441;-76
2022/03/03 08:31:07;;;;;;;34.97;21.07;;;7.90;8.30;;;;;;2614712;54;20414;-76
2022/03/03 08:33:52;;;;;;;31.07;21.53;;;7.80;7.70;;;;;;2613877;47;20830;-76
2022/03/03 08:36:44;;;;;;;32.43;21.90;;;7.70;8.10;;;;;;2614422;47;20421;-76
2022/03/03 08:39:38;;;;;;;22.47;19.87;;;7.90;8.30;;;;;;2615288;54;20422;-77
2022/03/03 08:42:32;;;;;;;24.73;20.30;;;;;;;;;;2614413;47;20406;-77
2022/03/03 08:45:02;;;;;;;46.77;22.50;;;;;;;;;;2615178;47;20452;-76
2022/03/03 08:47:32;;;;;;;24.60;19.20;;;9.70;9.40;;;;;;2615332;54;20453;-76
2022/03/03 08:50:01;;;;;;;29.70;20.00;;;9.80;4.40;;;;;;2614592;54;20651;-76
2022/03/03 08:52:27;;;;;;;26.90;19.43;;;9.80;1.00;;;;;;2614682;54;20411;-77
2022/03/03 08:54:55;;;;;;;25.23;20.60;;;9.90;1.00;;;;;;2615207;54;20462;-77
2022/03/03 08:57:21;;;;;;;26.00;20.23;;;10.10;1.00;;;;;;2614869;54;20398;-80
2022/03/03 08:59:48;;;;;;;27.50;21.07;;;10.40;1.00;;;;;;2615650;47;20427;-77
2022/03/03 09:02:20;;;;;;;27.33;21.37;;;10.50;1.00;;;;;;2616131;47;20423;-77
2022/03/03 09:04:47;;;;;;;26.60;19.90;;;10.60;1.00;;;;;;2615772;47;20441;-77
2022/03/03 09:07:14;;;;;;;24.30;20.10;;;10.90;1.00;;;;;;2615923;39;20885;-77
2022/03/03 09:09:40;;;;;;;23.73;17.90;;;11.20;1.00;;;;;;2614894;47;20508;-77
2022/03/03 09:12:08;;;;;;;21.57;19.27;;;;;;;;;;2614230;54;20399;-77
2022/03/03 09:14:36;;;;;;;26.00;20.57;;;12.50;1.00;;;;;;2614647;54;20510;-77
2022/03/03 09:17:30;;;;;;;24.67;20.10;;;12.10;1.00;;;;;;2616733;39;20878;-77
2022/03/03 09:20:22;;;;;;;24.70;20.53;;;11.80;1.00;;;;;;2615416;39;20900;-79
2022/03/03 09:22:53;;;;;;;23.03;19.37;;;11.50;1.00;;;;;;2614819;47;21004;-78
2022/03/03 09:25:21;;;;;;;34.67;22.30;;;11.70;1.00;;;;;;2614530;39;20517;-77
2022/03/03 09:27:47;;;;;;;24.80;20.30;;;11.90;1.00;;;;;;2613853;54;20431;-78
2022/03/03 09:30:13;;;;;;;23.67;19.37;;;12.00;1.00;;;;;;2614981;47;20492;-78
2022/03/03 09:32:39;;;;;;;24.23;19.00;;;11.90;1.00;;;;;;2614525;47;20415;-77
2022/03/03 09:35:07;;;;;;;24.93;18.70;;;13.00;1.00;;;;;;2614571;47;20941;-78
2022/03/03 09:37:34;;;;;;;23.60;19.70;;;12.60;1.00;;;;;;2614209;54;20438;-77
2022/03/03 09:40:27;;;;;;;24.17;18.57;;;12.60;1.00;;;;;;2614620;47;20462;-77
2022/03/03 09:43:02;;;;;;;20.83;18.63;;;12.70;1.00;;;;;;2613618;54;20472;-78
2022/03/03 09:45:30;;;;;;;22.53;20.10;;;12.60;1.00;;;;;;2614045;54;20403;-76
2022/03/03 09:47:58;;;;;;;25.90;20.10;;;12.30;1.00;;;;;;2613514;54;20476;-78
2022/03/03 09:50:27;;;;;;;23.17;19.93;;;12.60;1.00;;;;;;2613891;47;20952;-77
2022/03/03 09:53:19;;;;;;;21.67;19.40;;;;;;;;;;2614292;47;20987;-77
2022/03/03 09:55:46;;;;;;;23.47;17.37;;;;;;;;;;2613006;47;20416;-77
2022/03/03 09:58:38;;;;;;;20.43;17.63;;;13.50;1.00;;;;;;2613570;47;20415;-77
2022/03/03 10:01:04;;;;;;;20.77;18.57;;;13.30;1.00;;;;;;2613012;47;20440;-78
2022/03/03 10:03:35;;;;;;;21.63;18.07;;;13.30;1.00;;;;;;2613516;47;20426;-78
2022/03/03 10:06:03;;;;;;;18.70;16.83;;;13.70;1.00;;;;;;2614895;51;20429;-78
2022/03/03 10:08:30;;;;;;;17.80;15.90;;;13.70;1.00;;;;;;2614366;39;20859;-77
2022/03/03 10:11:07;;;;;;;19.70;16.57;;;14.00;1.00;;;;;;2614388;54;20404;-77
2022/03/03 10:13:50;;;;;;;23.10;15.50;;;14.20;1.00;;;;;;2613489;47;20950;-78
2022/03/03 10:16:26;;;;;;;19.10;17.20;;;14.60;1.00;;;;;;2613665;47;20419;-78
2022/03/03 10:19:04;;;;;;;18.40;16.70;;;14.90;1.00;;;;;;2612650;47;20429;-77
2022/03/03 10:21:35;;;;;;;19.77;17.80;;;14.80;1.00;;;;;;2613812;47;20411;-78
2022/03/03 10:24:43;;;;;;;21.10;17.63;;;14.90;1.00;;;;;;2614140;54;20408;-77
2022/03/03 10:27:09;;;;;;;17.43;15.77;;;15.10;1.00;;;;;;2614110;54;20442;-77
2022/03/03 10:29:58;;;;;;;16.87;15.33;;;15.00;1.00;;;;;;2614320;51;20424;-77
2022/03/03 10:32:25;;;;;;;18.10;16.30;;;15.20;1.00;;;;;;2612501;47;20440;-79
2022/03/03 10:34:55;;;;;;;18.03;16.13;;;15.20;1.00;;;;;;2613285;47;20512;-76
2022/03/03 10:37:24;;;;;;;18.63;16.67;;;15.30;1.00;;;;;;2612817;46;20424;-78
2022/03/03 10:39:59;;;;;;;16.93;15.23;;;15.50;1.00;;;;;;2612577;54;20431;-78
2022/03/03 10:42:26;;;;;;;17.03;15.53;;;15.50;1.00;;;;;;2613300;47;20498;-78
2022/03/03 10:45:15;;;;;;;17.47;15.87;;;15.60;1.00;;;;;;2614216;54;20404;-78
2022/03/03 10:47:46;;;;;;;17.37;15.80;;;15.20;1.00;;;;;;2614744;39;20870;-77
2022/03/03 10:50:12;;;;;;;22.07;16.47;;;15.30;1.00;;;;;;2614299;54;21002;-76
2022/03/03 10:52:40;;;;;;;17.67;15.20;;;15.30;1.00;;;;;;2614554;54;20976;-76
2022/03/03 10:55:17;;;;;;;18.63;16.73;;;15.40;1.00;;;;;;2613558;51;20577;-76
2022/03/03 10:57:51;;;;;;;17.20;15.60;;;15.90;1.00;;;;;;2614047;47;21209;-78
2022/03/03 11:00:23;;;;;;;20.50;15.53;;;;;;;;;;2613800;46;21018;-77
2022/03/03 11:02:55;;;;;;;17.30;15.70;;;16.30;1.00;;;;;;2613625;47;20416;-77
2022/03/03 11:05:24;;;;;;;16.30;14.90;;;15.90;1.00;;;;;;2613700;47;20426;-78
2022/03/03 11:07:53;;;;;;;17.23;15.53;;;;;;;;;;2614039;47;20478;-78
2022/03/03 11:10:21;;;;;;;18.87;16.93;;;15.80;1.00;;;;;;2614501;47;20462;-78
2022/03/03 11:12:48;;;;;;;20.63;16.10;;;16.10;1.00;;;;;;2615612;46;21062;-78
2022/03/03 11:15:18;;;;;;;18.70;16.93;;;;;;;;;;2615272;54;20412;-78
2022/03/03 11:17:44;;;;;;;18.93;17.10;;;15.90;1.00;;;;;;2614801;47;20536;-78
2022/03/03 11:20:39;;;;;;;19.77;17.87;;;15.80;1.00;;;;;;2614892;47;20420;-77
2022/03/03 11:23:06;;;;;;;17.40;16.00;;;16.20;1.00;;;;;;2614802;47;20523;-78
2022/03/03 11:25:35;;;;;;;18.07;16.50;;;16.20;1.00;;;;;;2613886;54;20507;-78
2022/03/03 11:28:16;;;;;;;19.90;16.17;;;16.70;1.00;;;;;;2613328;47;20998;-76
2022/03/03 11:30:46;;;;;;;19.30;17.50;;;16.70;1.00;;;;;;2614006;54;20449;-75
2022/03/03 11:33:23;;;;;;;17.47;15.67;;;16.40;1.00;;;;;;2614719;39;20817;-77
2022/03/03 11:35:52;;;;;;;18.03;16.43;;;16.30;1.00;;;;;;2613939;47;20458;-77
2022/03/03 11:38:20;;;;;;;16.77;15.33;;;16.50;1.00;;;;;;2614128;54;20441;-77
2022/03/03 11:41:03;;;;;;;19.83;17.83;;;16.20;1.00;;;;;;2614616;54;20562;-76
2022/03/03 11:43:43;;;;;;;17.77;16.17;;;16.30;1.00;;;;;;2614158;54;20419;-76
2022/03/03 11:46:10;;;;;;;17.80;16.30;;;16.40;1.00;;;;;;2614849;47;20430;-77
2022/03/03 11:48:39;;;;;;;18.87;16.90;;;16.00;1.00;;;;;;2614572;54;20416;-76
2022/03/03 11:51:34;;;;;;;18.33;16.33;;;16.10;1.00;;;;;;2613914;54;20408;-77
2022/03/03 11:54:11;;;;;;;19.07;17.07;;;15.90;1.00;;;;;;2614882;39;20891;-77
2022/03/03 11:57:06;;;;;;;18.07;16.40;;;16.10;1.00;;;;;;2614100;47;20456;-77
2022/03/03 11:59:34;;;;;;;16.90;15.40;;;16.20;1.00;;;;;;2615128;47;20424;-77
2022/03/03 12:02:04;;;;;;;16.63;15.27;;;16.40;1.00;;;;;;2615623;54;20419;-77
2022/03/03 12:04:30;;;;;;;18.77;16.80;;;16.40;1.00;;;;;;2615326;54;20415;-77
2022/03/03 12:06:56;;;;;;;18.70;16.87;;;16.20;1.00;;;;;;2615951;47;20979;-77
2022/03/03 12:09:26;;;;;;;17.60;16.13;;;16.40;1.00;;;;;;2614344;47;20424;-77
2022/03/03 12:12:13;;;;;;;18.77;16.40;;;16.40;1.00;;;;;;2613942;47;20530;-77
2022/03/03 12:14:52;;;;;;;16.70;15.20;;;15.70;1.00;;;;;;2615287;46;20442;-76
2022/03/03 12:17:46;;;;;;;17.37;15.70;;;15.80;1.00;;;;;;2616422;47;20418;-76
2022/03/03 12:20:24;;;;;;;16.27;14.83;;;15.80;1.00;;;;;;2615887;46;21171;-78
2022/03/03 12:23:12;;;;;;;19.50;15.30;;;15.90;1.00;;;;;;2616817;47;20411;-77
2022/03/03 12:25:50;;;;;;;17.37;15.67;;;16.30;1.00;;;;;;2616505;47;21046;-77
2022/03/03 12:28:30;;;;;;;17.93;16.43;;;16.40;1.00;;;;;;2616745;47;20426;-79
2022/03/03 12:30:56;;;;;;;17.07;15.57;;;16.40;1.00;;;;;;2615785;47;20411;-78
2022/03/03 12:33:25;;;;;;;20.60;17.87;;;16.40;1.00;;;;;;2615716;47;20416;-78
2022/03/03 12:36:01;;;;;;;17.37;15.67;;;16.00;1.00;;;;;;2614238;39;20803;-78
2022/03/03 12:38:53;;;;;;;17.13;15.60;;;16.30;1.00;;;;;;2616098;47;20423;-78
2022/03/03 12:41:22;;;;;;;16.63;15.03;;;16.40;1.00;;;;;;2616268;47;20436;-78
2022/03/03 12:43:49;;;;;;;17.33;15.70;;;16.70;1.00;;;;;;2614857;47;20414;-77
2022/03/03 12:46:18;;;;;;;17.30;15.90;;;17.20;1.00;;;;;;2614203;47;20415;-79
2022/03/03 12:48:46;;;;;;;15.40;13.97;;;17.40;1.00;;;;;;2615029;54;20456;-77
2022/03/03 12:51:12;;;;;;;17.03;15.43;;;17.30;1.00;;;;;;2615001;47;20427;-77
2022/03/03 12:53:43;;;;;;;17.00;15.43;;;17.70;1.00;;;;;;2614246;47;20439;-80
2022/03/03 12:56:18;;;;;;;16.10;14.70;;;17.60;1.00;;;;;;2616583;54;20495;-79